sensor_id;sensor_type;location;lat;lon;timestamp;P1;P2;P0
50589;PMS7003;36547;50.514;30.840;2023-05-07T00:00:57;10.80;9.10;6.80
50589;PMS7003;36547;50.514;30.840;2023-05-07T00:01:59;9.10;6.80;5.70
50589;PMS7003;36547;50.514;30.840;2023-05-07T00:03:01;8.33;7.56;5.89
50589;PMS7003;36547;50.514;30.840;2023-05-07T00:04:04;10.40;8.90;6.80
50589;PMS7003;36547;50.514;30.840;2023-05-07T00:05:08;9.00;7.40;6.80
50589;PMS7003;36547;50.514;30.840;2023-05-07T00:06:12;10.10;8.70;7.20
50589;PMS7003;36547;50.514;30.840;2023-05-07T00:07:14;9.70;9.20;6.50
50589;PMS7003;36547;50.514;30.840;2023-05-07T00:08:17;8.60;8.10;7.00
50589;PMS7003;36547;50.514;30.840;2023-05-07T00:09:19;8.60;7.90;5.90
50589;PMS7003;36547;50.514;30.840;2023-05-07T00:10:22;10.30;8.50;7.20
50589;PMS7003;36547;50.514;30.840;2023-05-07T00:11:25;8.90;7.20;5.10
50589;PMS7003;36547;50.514;30.840;2023-05-07T00:12:27;7.20;6.70;5.30
50589;PMS7003;36547;50.514;30.840;2023-05-07T00:13:29;10.10;8.70;6.50
50589;PMS7003;36547;50.514;30.840;2023-05-07T00:14:32;8.20;8.20;6.20
50589;PMS7003;36547;50.514;30.840;2023-05-07T00:15:34;8.90;8.00;6.10
50589;PMS7003;36547;50.514;30.840;2023-05-07T00:16:36;7.90;7.10;5.50
50589;PMS7003;36547;50.514;30.840;2023-05-07T00:17:39;9.30;7.10;5.70
50589;PMS7003;36547;50.514;30.840;2023-05-07T00:18:41;6.70;6.20;4.70
50589;PMS7003;36547;50.514;30.840;2023-05-07T00:19:43;8.30;7.50;5.50
50589;PMS7003;36547;50.514;30.840;2023-05-07T00:20:45;7.00;6.60;4.90
50589;PMS7003;36547;50.514;30.840;2023-05-07T00:21:47;6.70;6.70;5.40
50589;PMS7003;36547;50.514;30.840;2023-05-07T00:22:49;8.60;7.10;5.10
50589;PMS7003;36547;50.514;30.840;2023-05-07T00:23:55;4.50;4.50;3.40
50589;PMS7003;36547;50.514;30.840;2023-05-07T00:24:57;7.20;6.20;5.30
50589;PMS7003;36547;50.514;30.840;2023-05-07T00:26:00;7.64;7.45;5.55
50589;PMS7003;36547;50.514;30.840;2023-05-07T00:27:02;6.90;6.60;5.00
50589;PMS7003;36547;50.514;30.840;2023-05-07T00:28:04;6.90;6.60;5.30
50589;PMS7003;36547;50.514;30.840;2023-05-07T00:29:07;4.10;4.10;4.10
50589;PMS7003;36547;50.514;30.840;2023-05-07T00:30:10;5.90;5.90;4.40
50589;PMS7003;36547;50.514;30.840;2023-05-07T00:31:13;5.00;5.00;4.00
50589;PMS7003;36547;50.514;30.840;2023-05-07T00:32:16;5.00;4.50;3.50
50589;PMS7003;36547;50.514;30.840;2023-05-07T00:33:18;7.40;7.40;5.10
50589;PMS7003;36547;50.514;30.840;2023-05-07T00:34:21;5.90;5.90;4.90
50589;PMS7003;36547;50.514;30.840;2023-05-07T00:35:23;5.80;5.00;4.10
50589;PMS7003;36547;50.514;30.840;2023-05-07T00:36:27;5.10;4.20;3.80
50589;PMS7003;36547;50.514;30.840;2023-05-07T00:37:30;0.00;0.00;0.00
50589;PMS7003;36547;50.514;30.840;2023-05-07T00:38:32;5.40;4.40;4.50
50589;PMS7003;36547;50.514;30.840;2023-05-07T00:39:35;4.70;4.70;4.00
50589;PMS7003;36547;50.514;30.840;2023-05-07T00:40:37;4.00;4.00;3.10
50589;PMS7003;36547;50.514;30.840;2023-05-07T00:41:40;5.60;4.90;3.60
50589;PMS7003;36547;50.514;30.840;2023-05-07T00:42:43;4.91;4.91;4.36
50589;PMS7003;36547;50.514;30.840;2023-05-07T00:43:45;4.90;4.00;3.70
50589;PMS7003;36547;50.514;30.840;2023-05-07T00:44:48;5.00;4.40;3.40
50589;PMS7003;36547;50.514;30.840;2023-05-07T00:45:51;6.00;5.09;3.64
50589;PMS7003;36547;50.514;30.840;2023-05-07T00:46:54;6.18;4.45;3.73
50589;PMS7003;36547;50.514;30.840;2023-05-07T00:47:57;8.00;5.60;4.70
50589;PMS7003;36547;50.514;30.840;2023-05-07T00:49:01;3.90;3.90;3.00
50589;PMS7003;36547;50.514;30.840;2023-05-07T00:50:04;5.18;4.45;4.00
50589;PMS7003;36547;50.514;30.840;2023-05-07T00:51:07;5.70;4.90;3.40
50589;PMS7003;36547;50.514;30.840;2023-05-07T00:52:13;0.40;0.20;0.20
50589;PMS7003;36547;50.514;30.840;2023-05-07T00:53:17;4.30;4.30;3.80
50589;PMS7003;36547;50.514;30.840;2023-05-07T00:54:19;4.80;4.70;3.60
50589;PMS7003;36547;50.514;30.840;2023-05-07T00:55:23;4.90;4.90;3.70
50589;PMS7003;36547;50.514;30.840;2023-05-07T00:56:26;6.20;4.50;3.80
50589;PMS7003;36547;50.514;30.840;2023-05-07T00:57:29;4.10;3.90;3.00
50589;PMS7003;36547;50.514;30.840;2023-05-07T00:58:41;5.70;4.90;3.40
50589;PMS7003;36547;50.514;30.840;2023-05-07T00:59:43;4.60;4.60;3.00
50589;PMS7003;36547;50.514;30.840;2023-05-07T01:00:46;5.80;4.40;3.80
50589;PMS7003;36547;50.514;30.840;2023-05-07T01:01:49;4.00;4.00;3.80
50589;PMS7003;36547;50.514;30.840;2023-05-07T01:02:51;3.30;3.30;3.00
50589;PMS7003;36547;50.514;30.840;2023-05-07T01:03:54;4.00;4.00;3.00
50589;PMS7003;36547;50.514;30.840;2023-05-07T01:04:58;5.10;4.30;3.10
50589;PMS7003;36547;50.514;30.840;2023-05-07T01:06:02;4.80;4.70;3.80
50589;PMS7003;36547;50.514;30.840;2023-05-07T01:07:07;6.50;3.80;3.30
50589;PMS7003;36547;50.514;30.840;2023-05-07T01:08:09;6.10;4.30;3.30
50589;PMS7003;36547;50.514;30.840;2023-05-07T01:09:12;3.50;3.50;2.30
50589;PMS7003;36547;50.514;30.840;2023-05-07T01:10:15;4.45;4.45;3.45
50589;PMS7003;36547;50.514;30.840;2023-05-07T01:11:19;6.70;5.20;4.40
50589;PMS7003;36547;50.514;30.840;2023-05-07T01:12:22;4.70;4.30;2.90
50589;PMS7003;36547;50.514;30.840;2023-05-07T01:13:26;5.90;4.30;3.40
50589;PMS7003;36547;50.514;30.840;2023-05-07T01:14:29;4.20;3.50;2.80
50589;PMS7003;36547;50.514;30.840;2023-05-07T01:15:32;5.70;4.60;3.40
50589;PMS7003;36547;50.514;30.840;2023-05-07T01:16:34;4.30;4.30;3.00
50589;PMS7003;36547;50.514;30.840;2023-05-07T01:17:37;3.80;3.80;3.30
50589;PMS7003;36547;50.514;30.840;2023-05-07T01:18:42;3.00;3.00;2.60
50589;PMS7003;36547;50.514;30.840;2023-05-07T01:19:48;5.60;4.20;3.50
50589;PMS7003;36547;50.514;30.840;2023-05-07T01:20:54;3.90;3.90;3.70
50589;PMS7003;36547;50.514;30.840;2023-05-07T01:22:03;3.70;3.70;3.20
50589;PMS7003;36547;50.514;30.840;2023-05-07T01:23:12;3.20;3.20;2.40
50589;PMS7003;36547;50.514;30.840;2023-05-07T01:24:28;3.60;3.60;2.80
50589;PMS7003;36547;50.514;30.840;2023-05-07T01:25:37;2.80;2.80;2.70
50589;PMS7003;36547;50.514;30.840;2023-05-07T01:26:47;4.00;3.10;2.80
50589;PMS7003;36547;50.514;30.840;2023-05-07T01:27:51;3.20;3.20;2.90
50589;PMS7003;36547;50.514;30.840;2023-05-07T01:28:58;5.80;4.10;3.20
50589;PMS7003;36547;50.514;30.840;2023-05-07T01:30:04;2.50;2.20;2.00
50589;PMS7003;36547;50.514;30.840;2023-05-07T01:31:11;4.30;4.30;3.40
50589;PMS7003;36547;50.514;30.840;2023-05-07T01:32:17;3.10;2.80;2.20
50589;PMS7003;36547;50.514;30.840;2023-05-07T01:33:25;3.50;3.40;2.60
50589;PMS7003;36547;50.514;30.840;2023-05-07T01:34:32;4.00;3.00;2.90
50589;PMS7003;36547;50.514;30.840;2023-05-07T01:35:41;3.00;3.00;2.90
50589;PMS7003;36547;50.514;30.840;2023-05-07T01:36:49;3.60;3.50;3.00
50589;PMS7003;36547;50.514;30.840;2023-05-07T01:37:53;2.50;2.50;2.20
50589;PMS7003;36547;50.514;30.840;2023-05-07T01:38:59;4.30;3.50;2.60
50589;PMS7003;36547;50.514;30.840;2023-05-07T01:40:06;4.80;3.20;2.30
50589;PMS7003;36547;50.514;30.840;2023-05-07T01:41:13;2.00;2.00;2.00
50589;PMS7003;36547;50.514;30.840;2023-05-07T01:42:17;3.10;2.20;2.00
50589;PMS7003;36547;50.514;30.840;2023-05-07T01:43:22;4.40;3.40;2.10
50589;PMS7003;36547;50.514;30.840;2023-05-07T01:44:27;3.10;3.10;2.50
50589;PMS7003;36547;50.514;30.840;2023-05-07T01:45:34;3.80;3.80;2.50
50589;PMS7003;36547;50.514;30.840;2023-05-07T01:46:40;3.90;3.00;2.30
50589;PMS7003;36547;50.514;30.840;2023-05-07T01:47:47;3.50;3.50;3.10
50589;PMS7003;36547;50.514;30.840;2023-05-07T01:48:56;3.90;2.80;2.40
50589;PMS7003;36547;50.514;30.840;2023-05-07T01:50:01;3.00;3.00;2.00
50589;PMS7003;36547;50.514;30.840;2023-05-07T01:51:07;3.70;3.70;2.40
50589;PMS7003;36547;50.514;30.840;2023-05-07T01:52:13;3.70;3.20;2.60
50589;PMS7003;36547;50.514;30.840;2023-05-07T01:53:18;3.10;3.10;2.70
50589;PMS7003;36547;50.514;30.840;2023-05-07T01:55:36;4.40;4.00;3.00
50589;PMS7003;36547;50.514;30.840;2023-05-07T01:56:39;2.70;2.70;2.40
50589;PMS7003;36547;50.514;30.840;2023-05-07T01:57:41;4.40;3.20;2.50
50589;PMS7003;36547;50.514;30.840;2023-05-07T01:58:45;2.60;2.60;2.40
50589;PMS7003;36547;50.514;30.840;2023-05-07T01:59:48;3.20;3.20;2.80
50589;PMS7003;36547;50.514;30.840;2023-05-07T02:00:50;2.30;2.30;1.70
50589;PMS7003;36547;50.514;30.840;2023-05-07T02:01:53;2.10;2.00;1.60
50589;PMS7003;36547;50.514;30.840;2023-05-07T02:02:55;3.90;3.00;2.30
50589;PMS7003;36547;50.514;30.840;2023-05-07T02:04:03;3.20;3.20;2.20
50589;PMS7003;36547;50.514;30.840;2023-05-07T02:05:05;4.10;2.90;2.10
50589;PMS7003;36547;50.514;30.840;2023-05-07T02:06:09;2.80;2.40;1.80
50589;PMS7003;36547;50.514;30.840;2023-05-07T02:07:13;2.70;2.40;2.10
50589;PMS7003;36547;50.514;30.840;2023-05-07T02:08:15;2.50;2.50;2.00
50589;PMS7003;36547;50.514;30.840;2023-05-07T02:09:17;3.00;3.00;2.50
50589;PMS7003;36547;50.514;30.840;2023-05-07T02:10:22;2.40;2.20;2.20
50589;PMS7003;36547;50.514;30.840;2023-05-07T02:11:24;2.90;2.90;2.70
50589;PMS7003;36547;50.514;30.840;2023-05-07T02:12:26;2.00;2.00;1.70
50589;PMS7003;36547;50.514;30.840;2023-05-07T02:13:29;2.20;2.20;2.00
50589;PMS7003;36547;50.514;30.840;2023-05-07T02:14:33;2.00;2.00;2.00
50589;PMS7003;36547;50.514;30.840;2023-05-07T02:15:35;3.50;3.50;3.00
50589;PMS7003;36547;50.514;30.840;2023-05-07T02:16:38;4.09;3.27;2.73
50589;PMS7003;36547;50.514;30.840;2023-05-07T02:17:58;3.70;2.70;2.00
50589;PMS7003;36547;50.514;30.840;2023-05-07T02:19:06;2.40;2.40;2.00
50589;PMS7003;36547;50.514;30.840;2023-05-07T02:20:09;3.10;2.70;2.00
50589;PMS7003;36547;50.514;30.840;2023-05-07T02:21:13;2.30;2.20;1.90
50589;PMS7003;36547;50.514;30.840;2023-05-07T02:22:15;3.50;3.50;2.60
50589;PMS7003;36547;50.514;30.840;2023-05-07T02:23:18;2.70;2.70;2.30
50589;PMS7003;36547;50.514;30.840;2023-05-07T02:24:20;4.00;3.20;2.50
50589;PMS7003;36547;50.514;30.840;2023-05-07T02:25:23;2.70;2.50;2.50
50589;PMS7003;36547;50.514;30.840;2023-05-07T02:26:26;4.60;2.80;2.70
50589;PMS7003;36547;50.514;30.840;2023-05-07T02:27:28;3.10;3.10;2.80
50589;PMS7003;36547;50.514;30.840;2023-05-07T02:28:31;3.70;3.40;2.80
50589;PMS7003;36547;50.514;30.840;2023-05-07T02:29:38;3.20;3.20;2.50
50589;PMS7003;36547;50.514;30.840;2023-05-07T02:30:40;2.80;2.40;2.20
50589;PMS7003;36547;50.514;30.840;2023-05-07T02:31:42;5.20;2.90;2.20
50589;PMS7003;36547;50.514;30.840;2023-05-07T02:32:45;4.40;3.30;3.10
50589;PMS7003;36547;50.514;30.840;2023-05-07T02:33:47;4.00;4.00;3.00
50589;PMS7003;36547;50.514;30.840;2023-05-07T02:34:51;2.80;2.00;2.00
50589;PMS7003;36547;50.514;30.840;2023-05-07T02:35:53;3.50;2.60;2.00
50589;PMS7003;36547;50.514;30.840;2023-05-07T02:36:56;3.20;2.20;2.30
50589;PMS7003;36547;50.514;30.840;2023-05-07T02:37:59;3.82;3.00;2.82
50589;PMS7003;36547;50.514;30.840;2023-05-07T02:39:01;3.00;0.70;0.20
50589;PMS7003;36547;50.514;30.840;2023-05-07T02:40:04;3.70;3.50;2.50
50589;PMS7003;36547;50.514;30.840;2023-05-07T02:41:07;2.80;2.80;2.20
50589;PMS7003;36547;50.514;30.840;2023-05-07T02:42:09;2.50;2.10;1.90
50589;PMS7003;36547;50.514;30.840;2023-05-07T02:43:12;2.90;2.90;2.30
50589;PMS7003;36547;50.514;30.840;2023-05-07T02:44:16;2.40;2.40;2.30
50589;PMS7003;36547;50.514;30.840;2023-05-07T02:45:19;2.80;2.80;2.20
50589;PMS7003;36547;50.514;30.840;2023-05-07T02:46:22;3.30;2.40;2.00
50589;PMS7003;36547;50.514;30.840;2023-05-07T02:47:26;2.90;2.50;2.20
50589;PMS7003;36547;50.514;30.840;2023-05-07T02:48:29;2.40;2.40;2.10
50589;PMS7003;36547;50.514;30.840;2023-05-07T02:49:31;2.80;2.80;2.30
50589;PMS7003;36547;50.514;30.840;2023-05-07T02:50:34;2.30;2.30;2.20
50589;PMS7003;36547;50.514;30.840;2023-05-07T02:51:37;3.00;2.50;2.30
50589;PMS7003;36547;50.514;30.840;2023-05-07T02:52:41;3.40;3.40;3.10
50589;PMS7003;36547;50.514;30.840;2023-05-07T02:53:43;2.80;2.80;2.40
50589;PMS7003;36547;50.514;30.840;2023-05-07T02:54:45;2.40;2.10;1.80
50589;PMS7003;36547;50.514;30.840;2023-05-07T02:55:48;4.00;3.00;2.30
50589;PMS7003;36547;50.514;30.840;2023-05-07T02:56:50;4.10;3.20;3.10
50589;PMS7003;36547;50.514;30.840;2023-05-07T02:57:53;2.70;2.70;2.00
50589;PMS7003;36547;50.514;30.840;2023-05-07T02:58:55;3.90;3.00;2.50
50589;PMS7003;36547;50.514;30.840;2023-05-07T02:59:58;2.45;2.45;2.09
50589;PMS7003;36547;50.514;30.840;2023-05-07T03:01:02;3.00;3.00;2.80
50589;PMS7003;36547;50.514;30.840;2023-05-07T03:02:06;3.70;3.70;2.90
50589;PMS7003;36547;50.514;30.840;2023-05-07T03:03:09;3.50;2.00;1.40
50589;PMS7003;36547;50.514;30.840;2023-05-07T03:04:11;3.70;3.20;2.60
50589;PMS7003;36547;50.514;30.840;2023-05-07T03:05:14;3.70;3.70;3.10
50589;PMS7003;36547;50.514;30.840;2023-05-07T03:06:16;2.80;2.80;2.00
50589;PMS7003;36547;50.514;30.840;2023-05-07T03:07:19;2.00;2.00;1.90
50589;PMS7003;36547;50.514;30.840;2023-05-07T03:08:21;3.11;2.44;2.11
50589;PMS7003;36547;50.514;30.840;2023-05-07T03:09:23;4.00;3.10;3.00
50589;PMS7003;36547;50.514;30.840;2023-05-07T03:10:25;3.00;3.00;2.10
50589;PMS7003;36547;50.514;30.840;2023-05-07T03:11:27;2.50;2.50;1.70
50589;PMS7003;36547;50.514;30.840;2023-05-07T03:12:30;3.90;3.30;2.70
50589;PMS7003;36547;50.514;30.840;2023-05-07T03:13:32;3.40;2.60;2.20
50589;PMS7003;36547;50.514;30.840;2023-05-07T03:14:35;3.90;3.10;2.80
50589;PMS7003;36547;50.514;30.840;2023-05-07T03:15:37;2.40;2.40;2.00
50589;PMS7003;36547;50.514;30.840;2023-05-07T03:16:39;1.60;1.50;1.50
50589;PMS7003;36547;50.514;30.840;2023-05-07T03:17:41;5.00;3.50;2.90
50589;PMS7003;36547;50.514;30.840;2023-05-07T03:18:44;3.10;3.10;2.30
50589;PMS7003;36547;50.514;30.840;2023-05-07T03:19:46;3.10;3.10;2.70
50589;PMS7003;36547;50.514;30.840;2023-05-07T03:20:48;3.00;2.50;2.20
50589;PMS7003;36547;50.514;30.840;2023-05-07T03:21:52;3.70;3.40;2.50
50589;PMS7003;36547;50.514;30.840;2023-05-07T03:22:55;3.10;2.50;1.40
50589;PMS7003;36547;50.514;30.840;2023-05-07T03:23:57;4.80;2.90;2.80
50589;PMS7003;36547;50.514;30.840;2023-05-07T03:25:00;3.09;3.00;2.18
50589;PMS7003;36547;50.514;30.840;2023-05-07T03:26:05;3.90;3.00;2.70
50589;PMS7003;36547;50.514;30.840;2023-05-07T03:27:10;4.40;3.60;3.00
50589;PMS7003;36547;50.514;30.840;2023-05-07T03:28:17;4.00;2.50;2.20
50589;PMS7003;36547;50.514;30.840;2023-05-07T03:29:25;1.60;1.60;1.60
50589;PMS7003;36547;50.514;30.840;2023-05-07T03:30:29;3.80;3.80;2.60
50589;PMS7003;36547;50.514;30.840;2023-05-07T03:31:36;4.00;3.30;3.00
50589;PMS7003;36547;50.514;30.840;2023-05-07T03:32:42;1.70;1.70;1.00
50589;PMS7003;36547;50.514;30.840;2023-05-07T03:33:53;3.30;3.30;2.70
50589;PMS7003;36547;50.514;30.840;2023-05-07T03:34:58;3.40;2.70;2.30
50589;PMS7003;36547;50.514;30.840;2023-05-07T03:36:03;2.20;2.20;1.80
50589;PMS7003;36547;50.514;30.840;2023-05-07T03:37:14;3.50;2.50;2.00
50589;PMS7003;36547;50.514;30.840;2023-05-07T03:38:23;3.30;3.10;2.40
50589;PMS7003;36547;50.514;30.840;2023-05-07T03:39:27;3.70;2.30;2.20
50589;PMS7003;36547;50.514;30.840;2023-05-07T03:40:30;2.70;2.70;1.80
50589;PMS7003;36547;50.514;30.840;2023-05-07T03:41:37;4.30;2.80;2.20
50589;PMS7003;36547;50.514;30.840;2023-05-07T03:42:42;2.90;2.90;2.40
50589;PMS7003;36547;50.514;30.840;2023-05-07T03:43:48;2.50;2.50;2.30
50589;PMS7003;36547;50.514;30.840;2023-05-07T03:44:55;4.80;3.00;2.80
50589;PMS7003;36547;50.514;30.840;2023-05-07T03:46:06;3.40;2.60;2.50
50589;PMS7003;36547;50.514;30.840;2023-05-07T03:47:13;3.40;2.30;1.70
50589;PMS7003;36547;50.514;30.840;2023-05-07T03:48:17;2.90;2.90;2.40
50589;PMS7003;36547;50.514;30.840;2023-05-07T03:49:22;2.60;2.40;2.00
50589;PMS7003;36547;50.514;30.840;2023-05-07T03:50:29;3.20;2.00;1.80
50589;PMS7003;36547;50.514;30.840;2023-05-07T03:51:34;3.70;2.60;2.10
50589;PMS7003;36547;50.514;30.840;2023-05-07T03:52:39;3.00;3.00;2.70
50589;PMS7003;36547;50.514;30.840;2023-05-07T03:53:48;2.40;2.40;1.80
50589;PMS7003;36547;50.514;30.840;2023-05-07T03:54:54;3.20;2.40;2.30
50589;PMS7003;36547;50.514;30.840;2023-05-07T03:55:59;5.09;3.82;2.00
50589;PMS7003;36547;50.514;30.840;2023-05-07T03:57:11;3.60;2.30;2.00
50589;PMS7003;36547;50.514;30.840;2023-05-07T03:58:16;2.40;2.40;2.20
50589;PMS7003;36547;50.514;30.840;2023-05-07T03:59:21;2.10;2.10;1.80
50589;PMS7003;36547;50.514;30.840;2023-05-07T04:00:28;4.40;2.70;2.50
50589;PMS7003;36547;50.514;30.840;2023-05-07T04:01:32;3.00;2.60;2.20
50589;PMS7003;36547;50.514;30.840;2023-05-07T04:02:36;3.30;2.80;2.00
50589;PMS7003;36547;50.514;30.840;2023-05-07T04:03:43;2.50;2.50;1.80
50589;PMS7003;36547;50.514;30.840;2023-05-07T04:04:48;3.50;2.40;2.10
50589;PMS7003;36547;50.514;30.840;2023-05-07T04:05:55;3.40;2.90;2.40
50589;PMS7003;36547;50.514;30.840;2023-05-07T04:07:03;2.60;2.60;2.40
50589;PMS7003;36547;50.514;30.840;2023-05-07T04:08:10;3.40;2.50;2.00
50589;PMS7003;36547;50.514;30.840;2023-05-07T04:09:14;2.50;2.30;1.50
50589;PMS7003;36547;50.514;30.840;2023-05-07T04:10:22;3.00;3.00;2.20
50589;PMS7003;36547;50.514;30.840;2023-05-07T04:11:32;4.10;2.90;2.00
50589;PMS7003;36547;50.514;30.840;2023-05-07T04:12:37;2.50;2.50;2.50
50589;PMS7003;36547;50.514;30.840;2023-05-07T04:13:40;2.60;2.00;1.60
50589;PMS7003;36547;50.514;30.840;2023-05-07T04:14:45;3.00;2.60;2.60
50589;PMS7003;36547;50.514;30.840;2023-05-07T04:15:51;3.70;2.80;2.40
50589;PMS7003;36547;50.514;30.840;2023-05-07T04:16:56;2.90;2.50;2.00
50589;PMS7003;36547;50.514;30.840;2023-05-07T04:18:02;4.30;3.90;3.10
50589;PMS7003;36547;50.514;30.840;2023-05-07T04:19:07;3.70;3.00;2.70
50589;PMS7003;36547;50.514;30.840;2023-05-07T04:20:15;4.80;2.80;2.00
50589;PMS7003;36547;50.514;30.840;2023-05-07T04:21:22;4.00;2.90;2.80
50589;PMS7003;36547;50.514;30.840;2023-05-07T04:22:27;3.90;3.50;3.30
50589;PMS7003;36547;50.514;30.840;2023-05-07T04:23:31;5.30;2.70;2.30
50589;PMS7003;36547;50.514;30.840;2023-05-07T04:24:39;4.30;4.00;3.30
50589;PMS7003;36547;50.514;30.840;2023-05-07T04:25:44;3.60;2.90;2.80
50589;PMS7003;36547;50.514;30.840;2023-05-07T04:27:01;2.90;2.90;2.50
50589;PMS7003;36547;50.514;30.840;2023-05-07T04:28:04;4.60;3.40;3.00
50589;PMS7003;36547;50.514;30.840;2023-05-07T04:29:07;3.00;2.70;2.40
50589;PMS7003;36547;50.514;30.840;2023-05-07T04:30:12;4.70;3.10;2.50
50589;PMS7003;36547;50.514;30.840;2023-05-07T04:31:15;3.50;3.50;3.00
50589;PMS7003;36547;50.514;30.840;2023-05-07T04:32:28;3.00;2.70;2.00
50589;PMS7003;36547;50.514;30.840;2023-05-07T04:33:36;5.00;3.20;3.00
50589;PMS7003;36547;50.514;30.840;2023-05-07T04:34:42;4.50;3.50;2.50
50589;PMS7003;36547;50.514;30.840;2023-05-07T04:35:49;4.70;4.10;2.50
50589;PMS7003;36547;50.514;30.840;2023-05-07T04:36:57;2.90;2.90;2.70
50589;PMS7003;36547;50.514;30.840;2023-05-07T04:38:01;3.70;3.40;2.30
50589;PMS7003;36547;50.514;30.840;2023-05-07T04:39:09;2.90;2.80;2.40
50589;PMS7003;36547;50.514;30.840;2023-05-07T04:40:14;3.10;3.10;2.70
50589;PMS7003;36547;50.514;30.840;2023-05-07T04:41:20;2.40;2.40;2.00
50589;PMS7003;36547;50.514;30.840;2023-05-07T04:42:25;3.30;3.30;2.00
50589;PMS7003;36547;50.514;30.840;2023-05-07T04:43:30;2.50;2.50;2.30
50589;PMS7003;36547;50.514;30.840;2023-05-07T04:44:39;2.60;2.60;2.10
50589;PMS7003;36547;50.514;30.840;2023-05-07T04:45:47;3.10;3.10;2.90
50589;PMS7003;36547;50.514;30.840;2023-05-07T04:46:58;2.60;2.60;1.90
50589;PMS7003;36547;50.514;30.840;2023-05-07T04:48:06;2.80;2.80;2.50
50589;PMS7003;36547;50.514;30.840;2023-05-07T04:49:10;3.00;3.00;2.20
50589;PMS7003;36547;50.514;30.840;2023-05-07T04:50:18;4.90;4.00;2.80
50589;PMS7003;36547;50.514;30.840;2023-05-07T04:51:22;2.90;2.90;2.40
50589;PMS7003;36547;50.514;30.840;2023-05-07T04:52:28;1.80;1.80;1.40
50589;PMS7003;36547;50.514;30.840;2023-05-07T04:53:35;3.20;3.20;2.40
50589;PMS7003;36547;50.514;30.840;2023-05-07T04:54:41;3.70;3.50;2.80
50589;PMS7003;36547;50.514;30.840;2023-05-07T04:56:08;2.90;2.40;1.90
50589;PMS7003;36547;50.514;30.840;2023-05-07T04:57:18;2.30;2.30;2.10
50589;PMS7003;36547;50.514;30.840;2023-05-07T04:58:27;3.80;2.90;2.40
50589;PMS7003;36547;50.514;30.840;2023-05-07T04:59:32;4.30;3.80;2.70
50589;PMS7003;36547;50.514;30.840;2023-05-07T05:00:43;4.00;3.00;2.40
50589;PMS7003;36547;50.514;30.840;2023-05-07T05:01:54;3.50;2.60;2.30
50589;PMS7003;36547;50.514;30.840;2023-05-07T05:03:02;4.30;4.30;3.80
50589;PMS7003;36547;50.514;30.840;2023-05-07T05:04:07;4.40;3.40;3.00
50589;PMS7003;36547;50.514;30.840;2023-05-07T05:05:12;3.20;3.20;2.40
50589;PMS7003;36547;50.514;30.840;2023-05-07T05:06:30;3.50;2.30;1.90
50589;PMS7003;36547;50.514;30.840;2023-05-07T05:07:36;3.60;2.90;2.50
50589;PMS7003;36547;50.514;30.840;2023-05-07T05:08:41;4.00;3.80;3.00
50589;PMS7003;36547;50.514;30.840;2023-05-07T05:09:48;2.10;2.10;1.60
50589;PMS7003;36547;50.514;30.840;2023-05-07T05:10:58;5.18;3.91;2.64
50589;PMS7003;36547;50.514;30.840;2023-05-07T05:12:06;3.90;3.00;2.90
50589;PMS7003;36547;50.514;30.840;2023-05-07T05:13:14;3.10;3.10;2.60
50589;PMS7003;36547;50.514;30.840;2023-05-07T05:14:17;3.80;3.80;2.90
50589;PMS7003;36547;50.514;30.840;2023-05-07T05:15:20;4.40;3.50;3.30
50589;PMS7003;36547;50.514;30.840;2023-05-07T05:16:28;3.80;3.80;2.70
50589;PMS7003;36547;50.514;30.840;2023-05-07T05:17:33;3.90;3.20;3.00
50589;PMS7003;36547;50.514;30.840;2023-05-07T05:18:38;2.40;2.40;2.40
50589;PMS7003;36547;50.514;30.840;2023-05-07T05:19:44;3.60;3.60;2.70
50589;PMS7003;36547;50.514;30.840;2023-05-07T05:20:50;2.90;2.70;2.20
50589;PMS7003;36547;50.514;30.840;2023-05-07T05:22:01;2.90;2.70;2.40
50589;PMS7003;36547;50.514;30.840;2023-05-07T05:23:08;4.40;4.00;3.30
50589;PMS7003;36547;50.514;30.840;2023-05-07T05:24:12;4.20;3.00;2.30
50589;PMS7003;36547;50.514;30.840;2023-05-07T05:25:18;4.60;3.70;3.20
50589;PMS7003;36547;50.514;30.840;2023-05-07T05:26:25;4.00;3.10;2.40
50589;PMS7003;36547;50.514;30.840;2023-05-07T05:27:33;4.40;3.50;2.40
50589;PMS7003;36547;50.514;30.840;2023-05-07T05:28:40;3.40;3.40;2.50
50589;PMS7003;36547;50.514;30.840;2023-05-07T05:29:51;4.10;3.60;3.00
50589;PMS7003;36547;50.514;30.840;2023-05-07T05:30:57;2.90;2.90;2.20
50589;PMS7003;36547;50.514;30.840;2023-05-07T05:32:04;2.90;2.90;2.70
50589;PMS7003;36547;50.514;30.840;2023-05-07T05:33:09;2.80;2.80;2.70
50589;PMS7003;36547;50.514;30.840;2023-05-07T05:34:17;2.40;2.40;2.00
50589;PMS7003;36547;50.514;30.840;2023-05-07T05:35:26;3.10;2.20;2.20
50589;PMS7003;36547;50.514;30.840;2023-05-07T05:36:33;2.90;2.90;2.60
50589;PMS7003;36547;50.514;30.840;2023-05-07T05:37:40;3.20;3.20;2.40
50589;PMS7003;36547;50.514;30.840;2023-05-07T05:38:44;3.70;3.00;2.20
50589;PMS7003;36547;50.514;30.840;2023-05-07T05:39:50;3.90;3.70;3.00
50589;PMS7003;36547;50.514;30.840;2023-05-07T05:40:58;3.20;3.20;2.40
50589;PMS7003;36547;50.514;30.840;2023-05-07T05:42:03;3.70;2.90;2.60
50589;PMS7003;36547;50.514;30.840;2023-05-07T05:43:12;3.50;3.50;2.50
50589;PMS7003;36547;50.514;30.840;2023-05-07T05:44:17;3.20;3.20;2.50
50589;PMS7003;36547;50.514;30.840;2023-05-07T05:45:22;2.90;2.90;2.30
50589;PMS7003;36547;50.514;30.840;2023-05-07T05:46:28;3.70;2.80;2.10
50589;PMS7003;36547;50.514;30.840;2023-05-07T05:47:37;2.50;2.50;2.00
50589;PMS7003;36547;50.514;30.840;2023-05-07T05:48:41;3.00;3.00;2.10
50589;PMS7003;36547;50.514;30.840;2023-05-07T05:49:46;3.70;3.00;2.50
50589;PMS7003;36547;50.514;30.840;2023-05-07T05:50:50;5.20;2.90;2.40
50589;PMS7003;36547;50.514;30.840;2023-05-07T05:51:59;3.00;3.00;2.30
50589;PMS7003;36547;50.514;30.840;2023-05-07T05:53:06;3.00;3.00;2.70
50589;PMS7003;36547;50.514;30.840;2023-05-07T05:54:09;4.00;3.00;2.80
50589;PMS7003;36547;50.514;30.840;2023-05-07T05:55:17;3.00;2.40;2.00
50589;PMS7003;36547;50.514;30.840;2023-05-07T05:56:23;2.20;2.20;2.00
50589;PMS7003;36547;50.514;30.840;2023-05-07T05:57:28;3.00;3.00;2.90
50589;PMS7003;36547;50.514;30.840;2023-05-07T05:58:31;2.90;2.70;2.50
50589;PMS7003;36547;50.514;30.840;2023-05-07T05:59:37;3.40;3.40;2.70
50589;PMS7003;36547;50.514;30.840;2023-05-07T06:00:46;2.60;2.60;2.30
50589;PMS7003;36547;50.514;30.840;2023-05-07T06:01:51;3.50;3.00;2.40
50589;PMS7003;36547;50.514;30.840;2023-05-07T06:03:15;3.00;3.00;2.60
50589;PMS7003;36547;50.514;30.840;2023-05-07T06:04:20;4.40;3.60;3.00
50589;PMS7003;36547;50.514;30.840;2023-05-07T06:05:31;0.00;0.00;0.00
50589;PMS7003;36547;50.514;30.840;2023-05-07T06:06:42;5.30;4.40;3.70
50589;PMS7003;36547;50.514;30.840;2023-05-07T06:07:47;2.70;2.70;2.00
50589;PMS7003;36547;50.514;30.840;2023-05-07T06:08:51;3.00;3.00;2.50
50589;PMS7003;36547;50.514;30.840;2023-05-07T06:09:57;4.10;3.20;2.40
50589;PMS7003;36547;50.514;30.840;2023-05-07T06:11:04;4.70;3.20;2.30
50589;PMS7003;36547;50.514;30.840;2023-05-07T06:12:12;3.50;3.50;3.00
50589;PMS7003;36547;50.514;30.840;2023-05-07T06:13:19;3.70;3.70;3.30
50589;PMS7003;36547;50.514;30.840;2023-05-07T06:14:25;4.50;3.70;3.00
50589;PMS7003;36547;50.514;30.840;2023-05-07T06:15:33;2.50;2.50;2.40
50589;PMS7003;36547;50.514;30.840;2023-05-07T06:16:38;3.50;3.00;3.00